Time;durP1;ratioP1;P1;durP2;ratioP2;P2;SDS_P1;SDS_P2;PMS_P1;PMS_P2;Temp;Humidity;BMP_temperature;BMP_pressure;BME280_temperature;BME280_humidity;BME280_pressure;Samples;Min_cycle;Max_cycle;Signal;HPM_P1;HPM_P2
2022/12/30 00:01:31;;;;;;;10.43;4.70;;;23.80;99.90;;;;;;5052547;28;20719;-81
2022/12/30 00:03:57;;;;;;;11.43;4.93;;;23.60;99.90;;;;;;5076430;28;20523;-81
2022/12/30 00:06:25;;;;;;;10.05;4.90;;;23.50;99.90;;;;;;5060494;28;20914;-87
2022/12/30 00:08:55;;;;;;;8.30;4.60;;;23.30;99.90;;;;;;5060560;28;20873;-83
2022/12/30 00:11:30;;;;;;;10.25;5.00;;;23.30;99.90;;;;;;5070379;28;20512;-83
2022/12/30 00:34:15;;;;;;;9.77;4.32;;;24.10;99.90;;;;;;5049174;28;20406;-82
2022/12/30 00:36:43;;;;;;;8.70;3.90;;;24.50;99.90;;;;;;5050623;28;20372;-82
2022/12/30 00:39:10;;;;;;;11.07;4.63;;;25.00;99.90;;;;;;5052299;28;20386;-86
2022/12/30 00:44:22;;;;;;;12.45;4.82;;;25.70;99.90;;;;;;5055337;28;20461;-82
2022/12/30 00:46:49;;;;;;;20.05;4.70;;;25.80;99.90;;;;;;5048817;28;20486;-85
2022/12/30 00:57:32;;;;;;;16.20;4.30;;;25.90;99.90;;;;;;5047215;28;20395;-83
2022/12/30 00:59:59;;;;;;;16.53;4.27;;;26.10;99.90;;;;;;5050256;28;20388;-85
2022/12/30 01:02:27;;;;;;;13.85;3.85;;;26.20;99.90;;;;;;5050203;28;20378;-87
2022/12/30 01:04:54;;;;;;;15.20;4.60;;;26.20;99.90;;;;;;5064798;28;20385;-87
2022/12/30 01:07:21;;;;;;;11.05;3.50;;;26.10;99.90;;;;;;5061734;28;20410;-84
2022/12/30 01:09:48;;;;;;;9.95;3.40;;;26.10;99.90;;;;;;5068812;28;20405;-81
2022/12/30 01:12:15;;;;;;;10.40;3.37;;;26.30;99.90;;;;;;5068217;28;20373;-81
2022/12/30 01:14:47;;;;;;;9.55;3.25;;;26.40;99.90;;;;;;5072843;28;20579;-88
2022/12/30 01:17:21;;;;;;;10.57;3.30;;;26.40;99.90;;;;;;5060837;28;20391;-86
2022/12/30 01:19:48;;;;;;;6.70;2.97;;;26.50;99.90;;;;;;5069111;28;20370;-82
2022/12/30 01:22:16;;;;;;;7.95;3.20;;;26.30;99.90;;;;;;5070186;28;20865;-80
2022/12/30 01:24:43;;;;;;;8.38;3.00;;;26.30;99.90;;;;;;5071792;28;20371;-85
2022/12/30 01:27:10;;;;;;;8.57;2.83;;;26.30;99.90;;;;;;5058009;28;20410;-80
2022/12/30 01:29:39;;;;;;;9.23;3.00;;;26.30;99.90;;;;;;5055833;28;20393;-82
2022/12/30 01:32:09;;;;;;;8.87;3.00;;;26.30;99.90;;;;;;5058086;28;20396;-82
2022/12/30 01:34:37;;;;;;;9.60;2.78;;;26.20;99.90;;;;;;5061771;28;20872;-89
2022/12/30 01:37:04;;;;;;;10.15;3.10;;;26.10;99.90;;;;;;5038650;28;20388;-82
2022/12/30 01:39:31;;;;;;;10.15;3.35;;;25.90;99.90;;;;;;5059652;28;20378;-81
2022/12/30 01:41:59;;;;;;;10.05;3.20;;;25.80;99.90;;;;;;5050336;28;20380;-79
2022/12/30 01:44:56;;;;;;;8.35;3.22;;;25.60;99.90;;;;;;5052822;28;20374;-88
2022/12/30 01:47:36;;;;;;;10.02;3.30;;;25.40;99.90;;;;;;5061497;28;20401;-81
2022/12/30 01:50:20;;;;;;;9.00;3.10;;;25.10;99.90;;;;;;5058928;28;20856;-88
2022/12/30 01:52:52;;;;;;;10.18;3.25;;;25.10;99.90;;;;;;5054587;28;20409;-83
2022/12/30 01:55:50;;;;;;;10.37;3.27;;;25.10;99.90;;;;;;5052808;28;20389;-82
2022/12/30 01:58:26;;;;;;;10.18;3.75;;;25.10;99.90;;;;;;5048904;28;20488;-88
2022/12/30 02:00:53;;;;;;;8.75;3.40;;;25.20;99.90;;;;;;5069137;28;20382;-85
2022/12/30 02:03:20;;;;;;;10.45;3.20;;;25.30;99.90;;;;;;5062579;28;20739;-82
2022/12/30 02:05:49;;;;;;;10.60;3.33;;;25.20;99.90;;;;;;5050199;28;20776;-80
2022/12/30 02:08:18;;;;;;;10.20;3.22;;;25.10;99.90;;;;;;5045233;28;20402;-83
2022/12/30 02:10:52;;;;;;;12.65;3.60;;;25.10;99.90;;;;;;5054011;28;20434;-80
2022/12/30 02:13:21;;;;;;;8.95;3.20;;;25.00;99.90;;;;;;5062621;28;20792;-82
2022/12/30 02:16:03;;;;;;;9.02;2.83;;;25.00;99.90;;;;;;5047265;28;20445;-82
2022/12/30 02:19:01;;;;;;;9.57;2.40;;;25.10;99.90;;;;;;5047982;28;20455;-87
2022/12/30 02:22:12;;;;;;;10.50;2.85;;;25.40;99.90;;;;;;5050337;28;20449;-85
2022/12/30 02:25:15;;;;;;;9.63;2.60;;;25.60;99.90;;;;;;4972817;28;20441;-81
2022/12/30 02:28:05;;;;;;;7.20;2.30;;;25.80;99.90;;;;;;4972667;28;20422;-83
2022/12/30 02:30:50;;;;;;;11.95;2.40;;;26.10;99.90;;;;;;4972161;28;20886;-82
2022/12/30 02:33:27;;;;;;;8.13;2.27;;;26.10;99.90;;;;;;4978703;28;20378;-81
2022/12/30 02:36:16;;;;;;;8.03;2.13;;;26.20;99.90;;;;;;4973383;28;20385;-81
2022/12/30 02:39:05;;;;;;;8.90;2.40;;;26.30;99.90;;;;;;4977229;28;20394;-84
2022/12/30 02:44:42;;;;;;;7.95;2.30;;;26.70;99.30;;;;;;4971264;28;20414;-83
2022/12/30 02:47:21;;;;;;;6.60;1.97;;;26.60;99.00;;;;;;4978090;28;20408;-81
2022/12/30 02:52:46;;;;;;;8.30;2.10;;;27.00;99.20;;;;;;4972941;28;20416;-83
2022/12/30 02:55:16;;;;;;;8.88;2.47;;;27.20;98.20;;;;;;4989434;28;20388;-84
2022/12/30 02:57:43;;;;;;;10.10;2.20;;;27.40;98.00;;;;;;4988853;28;20464;-81
2022/12/30 03:06:30;;;;;;;6.43;1.92;;;27.50;96.10;;;;;;5066653;28;20769;-83
2022/12/30 03:09:21;;;;;;;8.25;2.15;;;27.50;95.90;;;;;;4969285;28;20993;-83
2022/12/30 03:12:15;;;;;;;7.05;2.15;;;27.70;95.70;;;;;;4969038;28;20386;-81
2022/12/30 03:15:14;;;;;;;6.63;1.98;;;27.90;94.90;;;;;;4970141;28;20422;-83
2022/12/30 03:17:43;;;;;;;8.35;2.20;;;27.80;94.30;;;;;;4931991;29;20400;-83
2022/12/30 03:20:17;;;;;;;7.95;2.05;;;27.70;94.40;;;;;;4912770;29;20429;-79
2022/12/30 03:28:22;;;;;;;7.90;1.90;;;27.50;93.50;;;;;;4930326;29;20396;-81
2022/12/30 03:30:58;;;;;;;7.72;1.77;;;27.10;93.00;;;;;;4931008;29;20386;-84
2022/12/30 03:33:28;;;;;;;6.68;2.00;;;27.10;92.80;;;;;;4927913;29;20421;-87
2022/12/30 03:36:10;;;;;;;6.57;1.90;;;26.80;93.70;;;;;;4925057;29;20473;-84
2022/12/30 03:38:39;;;;;;;7.63;2.00;;;26.70;94.40;;;;;;4930807;29;20893;-88
2022/12/30 03:41:08;;;;;;;6.97;2.00;;;26.60;94.60;;;;;;4929663;29;20394;-86
2022/12/30 03:43:36;;;;;;;7.77;2.00;;;26.50;94.20;;;;;;4929699;29;20428;-88
2022/12/30 03:46:03;;;;;;;7.87;2.07;;;26.40;94.60;;;;;;4985289;28;20398;-82
2022/12/30 03:48:30;;;;;;;7.33;1.90;;;26.20;95.20;;;;;;5025173;28;20455;-82
2022/12/30 03:50:57;;;;;;;7.57;2.00;;;26.00;96.00;;;;;;5025789;28;20393;-88
2022/12/30 03:53:24;;;;;;;7.18;1.98;;;25.80;95.80;;;;;;5015555;28;20390;-90
2022/12/30 03:55:52;;;;;;;7.05;1.90;;;25.90;96.20;;;;;;5031762;28;20377;-83
2022/12/30 03:58:19;;;;;;;7.97;1.90;;;25.80;95.90;;;;;;5022643;28;20394;-81
2022/12/30 04:00:46;;;;;;;7.03;1.90;;;25.60;96.10;;;;;;5030672;28;20496;-84
2022/12/30 04:03:13;;;;;;;8.70;2.03;;;25.60;95.90;;;;;;5030958;28;20389;-82
2022/12/30 04:05:40;;;;;;;7.07;1.98;;;25.50;95.80;;;;;;5028096;28;20468;-87
2022/12/30 04:08:07;;;;;;;7.07;2.13;;;25.50;95.70;;;;;;5045239;28;20425;-90
2022/12/30 04:10:34;;;;;;;7.63;1.95;;;25.60;96.00;;;;;;5051809;28;20364;-85
2022/12/30 04:13:01;;;;;;;8.40;2.00;;;25.60;95.90;;;;;;5051800;28;20383;-83
2022/12/30 04:15:27;;;;;;;7.10;2.08;;;25.70;95.10;;;;;;5062439;28;20381;-81
2022/12/30 04:17:54;;;;;;;7.30;2.00;;;25.70;94.80;;;;;;5050242;28;20445;-81
2022/12/30 04:20:21;;;;;;;6.35;1.90;;;25.70;95.00;;;;;;5060238;28;20426;-87
2022/12/30 04:22:48;;;;;;;7.82;2.10;;;25.60;94.90;;;;;;5060382;28;20420;-85
2022/12/30 04:25:15;;;;;;;6.23;1.77;;;25.70;95.10;;;;;;5037132;28;20391;-84
2022/12/30 04:27:42;;;;;;;6.68;1.80;;;25.60;95.30;;;;;;5056835;28;20887;-87
2022/12/30 04:30:09;;;;;;;8.80;2.22;;;25.70;95.30;;;;;;5037929;28;20392;-90
2022/12/30 04:32:36;;;;;;;5.50;1.70;;;25.80;95.10;;;;;;5061978;28;20389;-92
2022/12/30 04:35:03;;;;;;;9.07;2.10;;;25.90;95.00;;;;;;5051919;28;20469;-93
2022/12/30 04:37:30;;;;;;;6.78;2.10;;;26.10;94.50;;;;;;5036473;28;20887;-83
2022/12/30 04:39:57;;;;;;;6.07;2.40;;;26.10;94.30;;;;;;5051226;28;20415;-87
2022/12/30 04:42:24;;;;;;;6.07;1.80;;;26.10;94.20;;;;;;5049290;28;20445;-83
2022/12/30 04:44:51;;;;;;;6.63;1.83;;;26.10;94.20;;;;;;5048850;28;20384;-85
2022/12/30 04:47:18;;;;;;;5.10;1.63;;;26.10;93.90;;;;;;5058934;28;20409;-86
2022/12/30 04:49:45;;;;;;;4.53;1.70;;;26.20;93.30;;;;;;5049647;28;20388;-82
2022/12/30 04:52:12;;;;;;;10.30;2.10;;;26.30;93.10;;;;;;5044369;28;20391;-85
2022/12/30 04:54:39;;;;;;;5.45;1.83;;;26.30;93.50;;;;;;5049714;28;20387;-89
2022/12/30 04:57:06;;;;;;;10.73;2.50;;;26.30;93.00;;;;;;5050121;28;20449;-84
2022/12/30 04:59:33;;;;;;;16.85;2.90;;;26.30;93.40;;;;;;5049799;28;20379;-85
2022/12/30 05:02:00;;;;;;;11.35;2.88;;;26.30;93.50;;;;;;5049605;28;20392;-83
2022/12/30 05:04:27;;;;;;;7.45;2.08;;;26.20;93.50;;;;;;5048608;28;20872;-81
2022/12/30 05:06:54;;;;;;;6.70;2.05;;;26.30;93.50;;;;;;5050073;28;20439;-84
2022/12/30 05:09:21;;;;;;;7.35;1.92;;;26.40;93.50;;;;;;5050157;28;20480;-85
2022/12/30 05:11:47;;;;;;;7.20;2.13;;;26.60;93.70;;;;;;5048523;28;20454;-84
2022/12/30 05:14:15;;;;;;;8.65;1.92;;;26.80;93.40;;;;;;5049508;28;20978;-82
2022/12/30 05:16:41;;;;;;;6.78;2.13;;;26.90;93.10;;;;;;5041196;28;20451;-79
2022/12/30 05:19:09;;;;;;;9.35;2.20;;;27.10;93.10;;;;;;5049334;28;20398;-84
2022/12/30 05:21:36;;;;;;;11.10;2.25;;;27.10;93.50;;;;;;5046891;28;20759;-81
2022/12/30 05:26:48;;;;;;;7.13;1.65;;;27.20;91.70;;;;;;5053128;28;20433;-87
2022/12/30 05:29:15;;;;;;;6.28;1.80;;;27.20;91.80;;;;;;5048983;28;20380;-88
2022/12/30 05:31:43;;;;;;;7.65;2.00;;;27.30;91.80;;;;;;5052201;28;20786;-81
2022/12/30 05:34:10;;;;;;;5.72;1.60;;;27.40;92.00;;;;;;5066159;28;20806;-87
2022/12/30 05:36:38;;;;;;;7.70;1.77;;;27.40;91.70;;;;;;5051094;28;20390;-83
2022/12/30 05:39:05;;;;;;;5.75;1.70;;;27.10;91.70;;;;;;5066569;28;20888;-80
2022/12/30 05:41:33;;;;;;;7.05;1.83;;;27.00;91.70;;;;;;5063195;28;20771;-84
2022/12/30 05:44:00;;;;;;;5.77;1.90;;;26.80;91.70;;;;;;5062430;28;20380;-85
2022/12/30 05:46:27;;;;;;;7.93;2.00;;;26.60;92.10;;;;;;5055284;28;20875;-83
2022/12/30 05:48:54;;;;;;;6.80;1.70;;;26.40;92.60;;;;;;5039992;28;20388;-81
2022/12/30 05:51:21;;;;;;;6.15;2.00;;;26.30;92.80;;;;;;5058829;28;20391;-80
2022/12/30 05:53:48;;;;;;;6.22;1.67;;;26.30;92.80;;;;;;5050113;28;20391;-81
2022/12/30 05:56:15;;;;;;;7.37;1.83;;;26.30;92.70;;;;;;5053828;28;20375;-83
2022/12/30 05:58:42;;;;;;;8.83;1.80;;;26.30;92.70;;;;;;5056564;28;20462;-86
2022/12/30 06:01:09;;;;;;;7.35;1.65;;;26.20;92.90;;;;;;5046362;28;20378;-81
2022/12/30 06:03:36;;;;;;;7.68;1.70;;;26.30;93.00;;;;;;5059187;28;20464;-82
2022/12/30 06:06:07;;;;;;;7.65;1.90;;;26.30;93.00;;;;;;5032928;28;20382;-84
2022/12/30 06:08:34;;;;;;;7.50;2.00;;;26.30;93.20;;;;;;5071940;28;20412;-86
2022/12/30 06:11:02;;;;;;;6.95;1.90;;;26.20;93.40;;;;;;5066607;28;20398;-91
2022/12/30 06:13:29;;;;;;;7.38;1.90;;;26.20;93.40;;;;;;5066562;28;20449;-89
2022/12/30 06:15:56;;;;;;;7.43;1.80;;;26.10;93.90;;;;;;5050331;28;20420;-83
2022/12/30 06:18:25;;;;;;;7.80;1.90;;;26.00;94.20;;;;;;5050637;28;20381;-88
2022/12/30 06:20:52;;;;;;;8.82;1.70;;;26.00;94.60;;;;;;5059647;28;20543;-85
2022/12/30 06:23:19;;;;;;;7.93;1.83;;;25.90;94.50;;;;;;5066274;28;20391;-81
2022/12/30 06:25:50;;;;;;;6.55;1.88;;;25.80;94.80;;;;;;5052065;28;20392;-87
2022/12/30 06:28:17;;;;;;;7.35;1.90;;;25.70;95.10;;;;;;5050071;28;20411;-86
2022/12/30 06:30:44;;;;;;;7.18;1.77;;;25.60;95.10;;;;;;5056140;28;20380;-83
2022/12/30 06:33:11;;;;;;;6.93;1.90;;;25.70;95.00;;;;;;5059224;28;20380;-87
2022/12/30 06:35:37;;;;;;;8.15;2.00;;;25.70;94.90;;;;;;5056355;28;20957;-81
2022/12/30 06:38:04;;;;;;;7.18;1.90;;;25.80;95.10;;;;;;5058433;28;20392;-84
2022/12/30 06:40:31;;;;;;;9.57;1.80;;;26.00;94.80;;;;;;5037649;28;20943;-82
2022/12/30 06:42:58;;;;;;;7.05;1.70;;;26.10;94.40;;;;;;5049711;28;20402;-86
2022/12/30 06:45:26;;;;;;;8.93;1.90;;;26.10;94.10;;;;;;5039203;28;20767;-87
2022/12/30 06:47:53;;;;;;;8.27;2.00;;;26.10;94.60;;;;;;5057696;28;20404;-81
2022/12/30 06:50:20;;;;;;;8.75;2.10;;;26.10;95.20;;;;;;5053282;28;20384;-84
2022/12/30 06:52:47;;;;;;;8.90;2.00;;;26.10;95.90;;;;;;5052032;28;20445;-86
2022/12/30 06:55:14;;;;;;;7.72;1.90;;;26.00;96.00;;;;;;5050508;28;20931;-90
2022/12/30 06:57:41;;;;;;;10.07;2.00;;;26.00;96.10;;;;;;5051671;28;20422;-86
2022/12/30 07:00:09;;;;;;;6.95;2.00;;;26.10;96.30;;;;;;5052049;28;20402;-81
2022/12/30 07:02:36;;;;;;;7.30;2.00;;;26.20;95.60;;;;;;5051435;28;20415;-81
2022/12/30 07:05:03;;;;;;;8.13;2.00;;;26.20;94.80;;;;;;5051495;28;20384;-83
2022/12/30 07:07:30;;;;;;;7.22;2.00;;;26.20;94.60;;;;;;5051863;28;20441;-82
2022/12/30 07:09:57;;;;;;;6.28;1.83;;;26.20;95.10;;;;;;5051026;28;20383;-83
2022/12/30 07:12:24;;;;;;;8.23;2.03;;;26.00;95.50;;;;;;5041515;28;20925;-82
2022/12/30 07:14:51;;;;;;;9.18;2.15;;;25.80;95.80;;;;;;5031684;28;20394;-87
2022/12/30 07:17:18;;;;;;;6.80;2.00;;;25.60;96.00;;;;;;5054048;28;20386;-82
2022/12/30 07:19:46;;;;;;;9.43;2.05;;;25.30;96.50;;;;;;5052410;28;20389;-86
2022/12/30 07:22:15;;;;;;;8.90;2.22;;;25.20;97.00;;;;;;5051332;28;20392;-83
2022/12/30 07:24:43;;;;;;;9.33;2.10;;;25.10;96.80;;;;;;5049642;28;20379;-81
2022/12/30 07:27:13;;;;;;;7.60;2.08;;;25.00;97.10;;;;;;5039188;28;20768;-83
2022/12/30 07:29:40;;;;;;;7.70;2.20;;;24.80;97.20;;;;;;5065520;28;20374;-81
2022/12/30 07:32:09;;;;;;;7.30;2.10;;;24.70;97.20;;;;;;5063016;28;20384;-82
2022/12/30 07:34:37;;;;;;;9.20;2.20;;;24.70;97.50;;;;;;5052228;28;20384;-85
2022/12/30 07:37:04;;;;;;;10.43;2.22;;;24.60;97.70;;;;;;5051026;28;20380;-81
2022/12/30 07:39:32;;;;;;;9.60;2.00;;;24.60;97.70;;;;;;5051326;28;20417;-81
2022/12/30 07:41:59;;;;;;;8.13;1.90;;;24.50;98.00;;;;;;5051412;28;20391;-84
2022/12/30 07:44:26;;;;;;;8.77;2.13;;;24.50;98.20;;;;;;5044866;28;20410;-84
2022/12/30 07:46:53;;;;;;;11.50;2.40;;;24.50;98.40;;;;;;5044765;28;20812;-83
2022/12/30 07:49:20;;;;;;;7.43;2.00;;;24.50;98.90;;;;;;5048971;28;20368;-83
2022/12/30 07:51:47;;;;;;;9.53;2.17;;;24.50;98.70;;;;;;5055778;28;20397;-83
2022/12/30 07:54:13;;;;;;;10.25;2.30;;;24.50;98.70;;;;;;5034362;28;20385;-82
2022/12/30 07:56:40;;;;;;;8.02;2.10;;;24.50;98.50;;;;;;5070581;28;20858;-83
2022/12/30 07:59:07;;;;;;;8.35;2.30;;;24.40;98.60;;;;;;5053202;28;20402;-84
2022/12/30 08:01:34;;;;;;;8.73;2.20;;;24.40;98.80;;;;;;5043913;28;20757;-82
2022/12/30 08:04:01;;;;;;;9.80;2.23;;;24.30;98.80;;;;;;5044042;28;20398;-83
2022/12/30 08:06:28;;;;;;;8.60;2.20;;;24.20;98.90;;;;;;5047478;28;20437;-83
2022/12/30 08:08:55;;;;;;;11.70;2.20;;;24.20;99.10;;;;;;5041887;28;20452;-84
2022/12/30 08:11:22;;;;;;;11.70;2.38;;;24.20;99.20;;;;;;5050254;28;20374;-80
2022/12/30 08:13:49;;;;;;;12.40;2.60;;;24.10;99.40;;;;;;5043082;28;21386;-86
2022/12/30 08:16:17;;;;;;;7.93;2.40;;;24.00;99.60;;;;;;5040285;28;20388;-83
2022/12/30 08:18:44;;;;;;;13.65;2.40;;;23.90;99.60;;;;;;5054346;28;20401;-81
2022/12/30 08:21:16;;;;;;;13.88;2.42;;;23.80;99.70;;;;;;5057713;28;20740;-84
2022/12/30 08:23:44;;;;;;;10.23;2.40;;;23.70;99.80;;;;;;5047097;28;21016;-82
2022/12/30 08:26:14;;;;;;;8.85;2.40;;;23.70;99.90;;;;;;5042512;28;20372;-85
2022/12/30 08:28:41;;;;;;;6.82;2.20;;;23.60;99.90;;;;;;5050682;28;20384;-85
2022/12/30 08:31:11;;;;;;;9.67;2.27;;;23.60;99.90;;;;;;5053230;28;20402;-84
2022/12/30 08:33:38;;;;;;;10.00;2.47;;;23.50;99.90;;;;;;5055700;28;20386;-86
2022/12/30 08:36:08;;;;;;;10.93;2.70;;;23.50;99.90;;;;;;5056854;28;20380;-88
2022/12/30 08:38:37;;;;;;;10.80;2.42;;;23.50;99.90;;;;;;5070175;28;20370;-84
2022/12/30 08:41:13;;;;;;;9.73;2.40;;;23.40;99.90;;;;;;5055979;28;20446;-85
2022/12/30 08:43:40;;;;;;;15.73;2.85;;;23.30;99.90;;;;;;5059608;28;20388;-82
2022/12/30 08:46:08;;;;;;;11.20;2.67;;;23.20;99.90;;;;;;5045855;28;20427;-86
2022/12/30 08:48:35;;;;;;;11.43;2.70;;;23.10;99.90;;;;;;5057711;28;20394;-83
2022/12/30 08:51:02;;;;;;;12.33;2.60;;;22.90;99.90;;;;;;5053970;28;20381;-83
2022/12/30 08:53:29;;;;;;;12.07;2.67;;;22.90;99.90;;;;;;5059467;28;20385;-84
2022/12/30 08:56:24;;;;;;;11.82;2.67;;;22.80;99.90;;;;;;5069669;28;20423;-88
2022/12/30 08:58:51;;;;;;;12.10;2.80;;;22.80;99.90;;;;;;5062475;28;20391;-83
2022/12/30 09:01:24;;;;;;;11.77;2.72;;;22.70;99.90;;;;;;5053431;28;20394;-84
2022/12/30 09:03:52;;;;;;;12.90;2.70;;;22.60;99.90;;;;;;5054202;28;20391;-85
2022/12/30 09:06:22;;;;;;;11.57;2.80;;;22.50;99.90;;;;;;5047111;28;20393;-88
2022/12/30 09:08:49;;;;;;;15.25;2.80;;;22.40;99.90;;;;;;5048989;28;20752;-84
2022/12/30 09:11:22;;;;;;;13.95;2.85;;;22.40;99.90;;;;;;5051950;28;20434;-85
2022/12/30 09:13:49;;;;;;;13.03;2.70;;;22.30;99.90;;;;;;5053356;28;20390;-81
2022/12/30 09:16:20;;;;;;;11.73;2.80;;;22.20;99.90;;;;;;5068599;28;20845;-80
2022/12/30 09:18:48;;;;;;;12.70;3.10;;;22.10;99.90;;;;;;5048426;28;20390;-79
2022/12/30 09:21:16;;;;;;;13.82;2.88;;;22.00;99.90;;;;;;5069288;28;20842;-80
2022/12/30 09:23:44;;;;;;;12.65;2.85;;;22.00;99.90;;;;;;5062188;28;20390;-79
2022/12/30 09:26:19;;;;;;;15.63;3.00;;;21.90;99.90;;;;;;5051670;28;20392;-79
2022/12/30 09:28:47;;;;;;;17.48;3.05;;;21.90;99.90;;;;;;5044634;28;20374;-82
2022/12/30 09:31:15;;;;;;;11.90;2.80;;;21.80;99.90;;;;;;5048652;28;20381;-80
2022/12/30 09:33:42;;;;;;;13.18;2.95;;;21.70;99.90;;;;;;5057217;28;20474;-81
2022/12/30 09:36:10;;;;;;;12.07;2.90;;;21.60;99.90;;;;;;5054752;28;20376;-80
2022/12/30 09:38:37;;;;;;;11.60;2.92;;;21.60;99.90;;;;;;5052081;28;20404;-79
2022/12/30 09:43:14;;;;;;;14.67;3.13;;;21.50;99.90;;;;;;5046774;28;20392;-80
2022/12/30 09:44:41;;;;;;;12.75;2.95;;;21.60;99.90;;;;;;5067180;28;20917;-83
2022/12/30 09:47:31;;;;;;;12.20;2.92;;;21.50;99.90;;;;;;5057470;28;20454;-80
2022/12/30 09:50:04;;;;;;;11.77;2.75;;;21.50;99.90;;;;;;5047837;28;20398;-82
2022/12/30 09:52:49;;;;;;;11.98;2.90;;;21.50;99.90;;;;;;5052349;28;20392;-80
2022/12/30 09:55:27;;;;;;;13.70;2.92;;;21.50;99.90;;;;;;5039239;28;20405;-82
2022/12/30 09:58:04;;;;;;;13.32;2.92;;;21.40;99.90;;;;;;5055465;28;20465;-78
2022/12/30 10:00:35;;;;;;;12.88;3.10;;;21.40;99.90;;;;;;5043651;28;20447;-80
2022/12/30 10:03:08;;;;;;;15.45;2.95;;;21.30;99.90;;;;;;5048515;28;20883;-78
2022/12/30 10:05:57;;;;;;;12.40;2.92;;;21.30;99.90;;;;;;5054736;28;20408;-81
2022/12/30 10:08:36;;;;;;;12.43;2.90;;;21.20;99.90;;;;;;5052653;28;20421;-82
2022/12/30 10:11:13;;;;;;;13.40;2.80;;;21.20;99.90;;;;;;5027397;28;20383;-83
2022/12/30 10:14:26;;;;;;;11.98;2.80;;;21.10;99.90;;;;;;5056569;28;20385;-80
2022/12/30 10:17:02;;;;;;;13.50;2.95;;;21.00;99.90;;;;;;4966268;28;20386;-80
2022/12/30 10:20:05;;;;;;;10.90;2.60;;;21.00;99.90;;;;;;4973882;28;20408;-79
2022/12/30 10:23:01;;;;;;;13.82;3.20;;;20.90;99.90;;;;;;4974687;28;20398;-81
2022/12/30 10:25:53;;;;;;;13.13;2.85;;;20.80;99.90;;;;;;4982320;28;20394;-88
2022/12/30 10:28:31;;;;;;;13.55;3.05;;;20.80;99.90;;;;;;4968708;28;20414;-83
2022/12/30 10:30:58;;;;;;;14.10;2.95;;;20.80;99.90;;;;;;4985634;28;20408;-80
2022/12/30 10:33:25;;;;;;;14.20;3.00;;;20.80;99.90;;;;;;4978295;28;20426;-84
2022/12/30 10:36:18;;;;;;;13.35;2.90;;;20.70;99.90;;;;;;4981322;28;20467;-83
2022/12/30 10:38:45;;;;;;;14.60;2.83;;;20.60;99.90;;;;;;4972223;28;20489;-80
2022/12/30 10:41:37;;;;;;;11.45;2.90;;;20.60;99.90;;;;;;4979324;28;20444;-81
2022/12/30 10:44:19;;;;;;;14.32;3.00;;;20.60;99.90;;;;;;4977077;28;20577;-79
2022/12/30 10:47:37;;;;;;;13.88;3.25;;;20.60;99.90;;;;;;4974819;28;20813;-78
2022/12/30 10:50:37;;;;;;;12.82;2.83;;;20.60;99.90;;;;;;4976493;28;20926;-80
2022/12/30 10:53:09;;;;;;;13.00;3.28;;;20.50;99.90;;;;;;4969385;28;20418;-81
2022/12/30 10:55:45;;;;;;;12.05;3.35;;;20.40;99.90;;;;;;5025584;28;20384;-82
2022/12/30 10:58:37;;;;;;;17.85;3.50;;;20.40;99.90;;;;;;5031777;28;20381;-80
2022/12/30 11:01:05;;;;;;;15.88;3.35;;;20.30;99.90;;;;;;5029747;28;20402;-83
2022/12/30 11:03:32;;;;;;;14.32;3.35;;;20.30;99.90;;;;;;5020915;28;20395;-84
2022/12/30 11:06:19;;;;;;;15.02;3.08;;;20.30;99.90;;;;;;5027416;28;20436;-80
2022/12/30 11:08:47;;;;;;;12.75;3.08;;;20.20;99.90;;;;;;5019079;28;20430;-81
2022/12/30 11:11:15;;;;;;;16.33;3.22;;;20.10;99.90;;;;;;5024582;28;20389;-82
2022/12/30 11:16:40;;;;;;;11.90;3.03;;;20.10;99.90;;;;;;5025598;28;20441;-81
2022/12/30 11:19:23;;;;;;;13.80;3.05;;;20.00;99.90;;;;;;5032770;28;20928;-83
2022/12/30 11:21:54;;;;;;;12.40;3.40;;;19.90;99.90;;;;;;5036588;28;20433;-84
2022/12/30 11:24:22;;;;;;;13.27;3.20;;;19.90;99.90;;;;;;5034712;28;20718;-83
2022/12/30 11:26:50;;;;;;;16.88;3.40;;;19.80;99.90;;;;;;5031941;28;20479;-84
2022/12/30 11:29:20;;;;;;;11.82;3.28;;;19.80;99.90;;;;;;5035484;28;20397;-83
2022/12/30 11:31:51;;;;;;;11.07;3.20;;;19.70;99.90;;;;;;5049445;28;20376;-81
2022/12/30 11:34:36;;;;;;;14.38;3.30;;;19.70;99.90;;;;;;5038976;28;20835;-83
2022/12/30 11:37:31;;;;;;;14.17;3.30;;;19.70;99.90;;;;;;5025767;28;20430;-83
2022/12/30 11:40:26;;;;;;;12.75;3.25;;;19.60;99.90;;;;;;5061095;28;20368;-82
2022/12/30 11:43:17;;;;;;;14.30;3.50;;;19.50;99.90;;;;;;5048944;28;20396;-83
2022/12/30 11:46:07;;;;;;;15.93;3.50;;;19.50;99.90;;;;;;5039339;28;20738;-84
2022/12/30 11:48:39;;;;;;;13.88;3.60;;;19.50;99.90;;;;;;5045497;28;20511;-82
2022/12/30 11:51:21;;;;;;;14.57;3.67;;;19.40;99.90;;;;;;5027045;28;20458;-82
2022/12/30 11:53:50;;;;;;;14.65;3.45;;;19.40;99.90;;;;;;5047772;28;20911;-85
2022/12/30 11:56:23;;;;;;;10.63;3.30;;;19.40;99.90;;;;;;5031567;28;20721;-83
2022/12/30 11:58:50;;;;;;;12.25;3.30;;;19.30;99.90;;;;;;5027097;28;20474;-84
2022/12/30 12:01:17;;;;;;;14.93;3.65;;;19.20;99.90;;;;;;5051704;28;20394;-85
2022/12/30 12:03:51;;;;;;;12.50;3.20;;;19.20;99.90;;;;;;5044569;28;20409;-84
2022/12/30 12:06:19;;;;;;;16.17;3.60;;;19.20;99.90;;;;;;5048460;28;20392;-84
2022/12/30 12:09:14;;;;;;;17.88;3.53;;;19.20;99.90;;;;;;5023925;28;20443;-83
2022/12/30 12:11:46;;;;;;;12.10;3.53;;;19.10;99.90;;;;;;5044644;28;20456;-83
2022/12/30 12:14:38;;;;;;;12.73;3.38;;;19.10;99.90;;;;;;5050136;28;20392;-84
2022/12/30 12:17:20;;;;;;;14.07;3.58;;;19.10;99.90;;;;;;5050598;28;20360;-83
2022/12/30 12:19:53;;;;;;;12.85;3.40;;;19.00;99.90;;;;;;5050267;28;20376;-84
2022/12/30 12:23:06;;;;;;;16.55;3.50;;;19.00;99.90;;;;;;5049159;28;20391;-84
2022/12/30 12:25:48;;;;;;;15.52;3.65;;;19.00;99.90;;;;;;5030128;28;20420;-83
2022/12/30 12:28:15;;;;;;;14.52;3.60;;;19.00;99.90;;;;;;5044301;28;20419;-84
2022/12/30 12:31:03;;;;;;;12.25;3.25;;;19.00;99.90;;;;;;5040699;28;20391;-85
2022/12/30 12:33:53;;;;;;;12.52;3.35;;;18.90;99.90;;;;;;5046211;28;20890;-83
2022/12/30 12:36:35;;;;;;;15.52;3.80;;;19.00;99.90;;;;;;5039303;28;20381;-83
2022/12/30 12:39:11;;;;;;;12.52;3.40;;;18.90;99.90;;;;;;5035475;28;20390;-84
2022/12/30 12:42:03;;;;;;;11.27;3.30;;;18.90;99.90;;;;;;5042190;28;20384;-85
2022/12/30 12:45:17;;;;;;;13.30;3.50;;;18.90;99.90;;;;;;5039086;28;20966;-84
2022/12/30 12:48:05;;;;;;;14.45;3.45;;;18.80;99.90;;;;;;4977184;28;20422;-83
2022/12/30 12:51:02;;;;;;;14.03;3.60;;;18.80;99.90;;;;;;5000127;28;20387;-84
2022/12/30 12:53:42;;;;;;;13.48;3.67;;;18.80;99.90;;;;;;4978271;28;20483;-84
2022/12/30 12:56:30;;;;;;;14.85;3.50;;;18.80;99.90;;;;;;4991473;28;20400;-85
2022/12/30 12:59:21;;;;;;;15.20;3.30;;;18.80;99.90;;;;;;5002561;28;20376;-83
2022/12/30 13:02:16;;;;;;;13.38;3.25;;;18.80;99.90;;;;;;4973606;28;20403;-83
2022/12/30 13:04:49;;;;;;;12.57;3.33;;;18.70;99.90;;;;;;4988215;28;20857;-85
2022/12/30 13:07:36;;;;;;;10.43;3.30;;;18.70;99.90;;;;;;4987483;28;21064;-84
2022/12/30 13:10:15;;;;;;;15.65;4.40;;;18.70;99.90;;;;;;4990514;28;20405;-84
2022/12/30 13:12:54;;;;;;;15.43;4.63;;;18.60;99.90;;;;;;4985926;28;20390;-84
2022/12/30 13:15:43;;;;;;;13.88;4.80;;;18.60;99.90;;;;;;4989368;28;20381;-82
2022/12/30 13:18:18;;;;;;;14.93;4.88;;;18.60;99.90;;;;;;5001541;28;20402;-85
2022/12/30 13:20:59;;;;;;;15.13;4.93;;;18.50;99.90;;;;;;4988177;28;20480;-83
2022/12/30 13:23:32;;;;;;;16.77;4.78;;;18.50;99.90;;;;;;5016956;28;20387;-84
2022/12/30 13:26:04;;;;;;;14.47;4.40;;;18.50;99.90;;;;;;5042701;28;20397;-84
2022/12/30 13:28:35;;;;;;;14.23;4.47;;;18.50;99.90;;;;;;5036773;28;20500;-82
2022/12/30 13:31:23;;;;;;;14.40;4.50;;;18.40;99.90;;;;;;5060989;28;20476;-83
2022/12/30 13:34:12;;;;;;;12.95;4.57;;;18.40;99.90;;;;;;5050818;28;20436;-84
2022/12/30 13:37:11;;;;;;;14.75;4.45;;;18.40;99.90;;;;;;5069783;28;20452;-85
2022/12/30 13:40:14;;;;;;;12.65;4.38;;;18.30;99.90;;;;;;4970627;28;20449;-84
2022/12/30 13:43:24;;;;;;;13.20;4.35;;;18.30;99.90;;;;;;4933339;29;20402;-85
2022/12/30 13:45:57;;;;;;;13.10;4.00;;;18.20;99.90;;;;;;4862145;29;20416;-83
2022/12/30 13:48:28;;;;;;;14.50;4.18;;;18.20;99.90;;;;;;4865647;29;20779;-84
2022/12/30 13:51:16;;;;;;;14.95;4.10;;;18.20;99.90;;;;;;4860654;29;20411;-84
2022/12/30 13:54:02;;;;;;;17.13;4.47;;;18.20;99.90;;;;;;4870154;29;20411;-84
2022/12/30 13:56:41;;;;;;;14.32;4.03;;;18.20;99.90;;;;;;4865349;29;20538;-84
2022/12/30 13:59:38;;;;;;;12.00;3.97;;;18.20;99.90;;;;;;4872821;29;20485;-85
2022/12/30 14:02:16;;;;;;;17.58;4.55;;;18.20;99.90;;;;;;4827077;29;20419;-82
2022/12/30 14:04:49;;;;;;;15.82;4.50;;;18.20;99.90;;;;;;4821582;29;20411;-84
2022/12/30 14:07:42;;;;;;;16.83;4.85;;;18.20;99.90;;;;;;4830580;29;20471;-83
2022/12/30 14:10:18;;;;;;;17.05;5.05;;;18.20;99.90;;;;;;4826663;29;20400;-85